Time;durP1;ratioP1;P1;durP2;ratioP2;P2;SDS_P1;SDS_P2;PMS_P1;PMS_P2;Temp;Humidity;BMP_temperature;BMP_pressure;BME280_temperature;BME280_humidity;BME280_pressure;Samples;Min_cycle;Max_cycle;Signal;HPM_P1;HPM_P2
2022/06/28 00:01:19;;;;;;;7.00;6.80;;;24.80;90.00;;;;;;5064178;28;21009;-55
2022/06/28 00:03:46;;;;;;;6.60;6.40;;;24.80;89.80;;;;;;5071045;28;20464;-59
2022/06/28 00:06:13;;;;;;;7.50;7.30;;;24.80;90.00;;;;;;5071405;28;20534;-56
2022/06/28 00:08:40;;;;;;;7.23;7.03;;;24.80;90.40;;;;;;5069624;28;20538;-59
2022/06/28 00:11:07;;;;;;;6.73;6.43;;;24.70;90.10;;;;;;5069974;28;20534;-59
2022/06/28 00:13:36;;;;;;;7.40;7.20;;;24.70;89.70;;;;;;5051174;28;20571;-59
2022/06/28 00:16:04;;;;;;;7.40;7.20;;;24.70;89.60;;;;;;5051335;28;20448;-59
2022/06/28 00:18:31;;;;;;;6.63;6.43;;;24.70;90.00;;;;;;5052276;28;20531;-59
2022/06/28 00:20:58;;;;;;;7.37;7.07;;;24.70;90.10;;;;;;5050878;28;20444;-55
2022/06/28 00:23:25;;;;;;;6.73;6.47;;;24.70;90.20;;;;;;5059730;28;20495;-58
2022/06/28 00:25:52;;;;;;;7.93;7.63;;;24.70;90.00;;;;;;5051065;28;20531;-55
2022/06/28 00:28:19;;;;;;;6.60;6.40;;;24.70;90.40;;;;;;5053419;28;20539;-59
2022/06/28 00:30:47;;;;;;;6.87;6.57;;;24.70;90.00;;;;;;5067656;28;21036;-59
2022/06/28 00:33:14;;;;;;;6.97;6.57;;;24.70;90.20;;;;;;5059844;28;20587;-59
2022/06/28 00:35:41;;;;;;;7.50;7.30;;;24.70;90.20;;;;;;5034822;28;20532;-59
2022/06/28 00:38:08;;;;;;;6.80;6.60;;;24.70;90.20;;;;;;5043526;28;20440;-54
2022/06/28 00:40:42;;;;;;;6.47;6.27;;;24.70;90.30;;;;;;5054409;28;20483;-58
2022/06/28 00:43:09;;;;;;;7.60;7.30;;;24.70;90.10;;;;;;5062988;28;20488;-59
2022/06/28 00:45:36;;;;;;;7.40;7.20;;;24.70;90.40;;;;;;5054599;28;20841;-59
2022/06/28 00:48:06;;;;;;;6.20;6.10;;;24.70;90.50;;;;;;5054427;28;20531;-59
2022/06/28 00:50:35;;;;;;;6.60;6.40;;;24.70;90.80;;;;;;5054180;28;20487;-56
2022/06/28 00:53:04;;;;;;;7.50;7.30;;;24.70;90.50;;;;;;5070216;28;20486;-58
2022/06/28 00:55:31;;;;;;;8.60;8.10;;;24.70;90.50;;;;;;5074139;28;20896;-57
2022/06/28 00:57:58;;;;;;;5.97;5.87;;;24.60;90.90;;;;;;5073852;28;20450;-58
2022/06/28 01:00:25;;;;;;;8.40;8.10;;;24.60;90.40;;;;;;5073898;28;20806;-58
2022/06/28 01:02:52;;;;;;;6.80;6.60;;;24.60;90.40;;;;;;5059489;28;20555;-59
2022/06/28 01:05:21;;;;;;;7.40;7.00;;;24.60;90.30;;;;;;5054243;28;20444;-56
2022/06/28 01:07:48;;;;;;;7.87;7.57;;;24.60;90.60;;;;;;5059917;28;20531;-59
2022/06/28 01:10:15;;;;;;;8.10;7.70;;;24.60;90.10;;;;;;5068631;28;21206;-56
2022/06/28 01:12:42;;;;;;;7.23;6.93;;;24.60;90.50;;;;;;5053909;28;20525;-56
2022/06/28 01:15:10;;;;;;;7.43;7.23;;;24.60;90.60;;;;;;5054022;28;20539;-59
2022/06/28 01:17:37;;;;;;;7.23;6.83;;;24.60;90.10;;;;;;5054064;28;20484;-57
2022/06/28 01:20:04;;;;;;;6.97;6.77;;;24.60;90.30;;;;;;5057226;28;20523;-59
2022/06/28 01:22:38;;;;;;;7.07;6.87;;;24.60;90.30;;;;;;5066823;28;20543;-59
2022/06/28 01:25:07;;;;;;;8.03;7.73;;;24.60;90.50;;;;;;5064824;28;20471;-58
2022/06/28 01:27:34;;;;;;;6.73;6.53;;;24.60;90.40;;;;;;5073543;28;20467;-55
2022/06/28 01:30:02;;;;;;;6.27;6.07;;;24.50;90.10;;;;;;5070661;28;20528;-59
2022/06/28 01:32:29;;;;;;;7.37;7.13;;;24.50;90.30;;;;;;5054568;28;20996;-59
2022/06/28 01:34:56;;;;;;;7.43;7.23;;;24.50;90.00;;;;;;5072360;28;20443;-58
2022/06/28 01:37:23;;;;;;;7.10;6.80;;;24.50;90.10;;;;;;5073337;28;20443;-59
2022/06/28 01:39:52;;;;;;;7.00;6.70;;;24.50;90.50;;;;;;5071810;28;20440;-57
2022/06/28 01:42:19;;;;;;;6.60;6.40;;;24.50;90.10;;;;;;5055790;28;20557;-54
2022/06/28 01:44:46;;;;;;;7.10;6.90;;;24.50;90.00;;;;;;5073217;28;20538;-58
2022/06/28 01:47:14;;;;;;;6.80;6.60;;;24.50;90.10;;;;;;5073289;28;20976;-57
2022/06/28 01:49:41;;;;;;;7.23;7.03;;;24.50;90.10;;;;;;5067905;28;20482;-56
2022/06/28 01:52:08;;;;;;;7.40;7.10;;;24.50;90.10;;;;;;5072147;28;20554;-58
2022/06/28 01:54:35;;;;;;;7.60;7.30;;;24.50;89.90;;;;;;5075213;22;20513;-62
2022/06/28 01:57:03;;;;;;;6.83;6.63;;;24.50;89.90;;;;;;5013536;28;20520;-61
2022/06/28 01:59:31;;;;;;;6.87;6.57;;;24.50;90.00;;;;;;4993965;28;20525;-63
2022/06/28 02:01:58;;;;;;;6.90;6.70;;;24.40;90.00;;;;;;5029326;28;20472;-62
2022/06/28 02:04:28;;;;;;;7.10;6.80;;;24.50;89.80;;;;;;5033340;28;21034;-62
2022/06/28 02:06:56;;;;;;;6.70;6.50;;;24.50;90.10;;;;;;5032953;28;20445;-62
2022/06/28 02:09:24;;;;;;;7.03;6.83;;;24.50;89.60;;;;;;5032881;28;20532;-62
2022/06/28 02:11:52;;;;;;;6.90;6.70;;;24.40;89.60;;;;;;5015767;28;20480;-62
2022/06/28 02:14:20;;;;;;;7.97;7.67;;;24.40;89.60;;;;;;5013143;28;20508;-62
2022/06/28 02:16:47;;;;;;;7.27;6.80;;;24.40;89.20;;;;;;5013277;28;20533;-62
2022/06/28 02:19:14;;;;;;;6.17;5.97;;;24.40;89.00;;;;;;5013169;28;20541;-62
2022/06/28 02:21:42;;;;;;;6.67;6.40;;;24.40;89.70;;;;;;5027692;28;20996;-61
2022/06/28 02:24:11;;;;;;;7.00;6.80;;;24.40;89.60;;;;;;5032520;28;20496;-62
2022/06/28 02:26:39;;;;;;;6.70;6.50;;;24.40;89.90;;;;;;5032402;28;20877;-61
2022/06/28 02:29:07;;;;;;;6.50;6.30;;;24.40;90.10;;;;;;5022097;28;20881;-62
2022/06/28 02:31:36;;;;;;;7.37;7.17;;;24.40;89.60;;;;;;5024953;28;20938;-61
2022/06/28 02:34:04;;;;;;;6.80;6.50;;;24.40;90.00;;;;;;5032007;28;20670;-60
2022/06/28 02:42:00;;;;;;;6.80;6.60;;;24.30;89.70;;;;;;5014605;28;20441;-62
2022/06/28 02:44:26;;;;;;;7.00;6.70;;;24.40;89.60;;;;;;5012665;28;20489;-61
2022/06/28 02:46:55;;;;;;;6.30;6.20;;;24.40;89.90;;;;;;5012705;28;20480;-62
2022/06/28 02:49:22;;;;;;;6.57;6.37;;;24.30;89.80;;;;;;5012770;28;21035;-62
2022/06/28 02:51:49;;;;;;;7.27;7.07;;;24.30;89.80;;;;;;5026903;28;20448;-59
2022/06/28 02:54:16;;;;;;;6.90;6.70;;;24.30;89.80;;;;;;5031747;28;20503;-59
2022/06/28 02:56:44;;;;;;;7.63;7.23;;;24.30;90.00;;;;;;5032236;28;20441;-61
2022/06/28 02:59:11;;;;;;;6.83;6.63;;;24.30;90.10;;;;;;5031924;28;20511;-61
2022/06/28 03:01:39;;;;;;;7.10;6.90;;;24.30;90.00;;;;;;5017781;28;20446;-61
2022/06/28 03:04:07;;;;;;;6.70;6.50;;;24.30;89.90;;;;;;5012305;28;20449;-59
2022/06/28 03:06:34;;;;;;;7.17;6.70;;;24.30;90.10;;;;;;5026283;28;21029;-62
2022/06/28 03:09:01;;;;;;;6.13;6.00;;;24.30;90.10;;;;;;5031764;28;20449;-61
2022/06/28 03:11:28;;;;;;;6.43;6.33;;;24.30;90.00;;;;;;5018847;28;20449;-60
2022/06/28 03:13:55;;;;;;;6.93;6.73;;;24.30;90.00;;;;;;5012037;28;20536;-62
2022/06/28 03:16:22;;;;;;;8.60;8.20;;;24.30;90.10;;;;;;5024250;28;20537;-61
2022/06/28 03:18:49;;;;;;;7.50;7.20;;;24.30;90.10;;;;;;5012214;28;20536;-62
2022/06/28 03:21:17;;;;;;;7.53;7.33;;;24.30;89.80;;;;;;5022174;28;20548;-62
2022/06/28 03:23:44;;;;;;;7.60;7.40;;;24.30;89.80;;;;;;5018400;28;20541;-61
2022/06/28 03:26:11;;;;;;;7.17;6.87;;;24.30;90.10;;;;;;5011931;28;20552;-62
2022/06/28 03:28:38;;;;;;;7.13;6.90;;;24.30;90.00;;;;;;5011939;28;20539;-61
2022/06/28 03:31:05;;;;;;;8.13;7.63;;;24.30;89.90;;;;;;5022150;28;20529;-61
2022/06/28 03:33:32;;;;;;;7.17;6.97;;;24.30;90.10;;;;;;5011927;28;20485;-58
2022/06/28 03:35:59;;;;;;;7.90;7.50;;;24.30;89.80;;;;;;5012020;28;20548;-61
2022/06/28 03:38:28;;;;;;;7.47;7.17;;;24.30;89.60;;;;;;5022355;28;20481;-61
2022/06/28 03:40:55;;;;;;;7.10;6.90;;;24.30;89.80;;;;;;5031454;28;20863;-61
2022/06/28 03:43:22;;;;;;;7.00;6.80;;;24.20;89.80;;;;;;5031065;28;20441;-62
2022/06/28 03:45:49;;;;;;;7.77;7.47;;;24.30;90.10;;;;;;5031611;28;20548;-62
2022/06/28 03:48:15;;;;;;;7.17;6.93;;;24.30;90.20;;;;;;5022022;28;20452;-62
2022/06/28 03:50:42;;;;;;;7.00;6.67;;;24.20;90.10;;;;;;5011681;28;20528;-62
2022/06/28 03:53:09;;;;;;;7.50;7.30;;;24.30;90.40;;;;;;5019976;28;20519;-60
2022/06/28 03:55:37;;;;;;;7.30;7.10;;;24.20;90.60;;;;;;5031076;28;20555;-62
2022/06/28 03:58:04;;;;;;;6.80;6.50;;;24.20;90.30;;;;;;5023383;28;20878;-61
2022/06/28 04:00:31;;;;;;;6.70;6.50;;;24.20;90.40;;;;;;5011620;28;20974;-58
2022/06/28 04:03:00;;;;;;;7.33;7.13;;;24.20;90.40;;;;;;5013366;28;20469;-62
2022/06/28 04:05:27;;;;;;;7.50;7.20;;;24.20;90.30;;;;;;4996156;28;20470;-62
2022/06/28 04:07:55;;;;;;;7.50;7.20;;;24.20;90.30;;;;;;5009012;28;20531;-63
2022/06/28 04:10:21;;;;;;;7.10;6.90;;;24.20;90.40;;;;;;5035381;28;20445;-62
2022/06/28 04:12:50;;;;;;;7.03;6.83;;;24.20;90.30;;;;;;5034884;28;20484;-63
2022/06/28 04:15:17;;;;;;;7.60;7.30;;;24.20;90.40;;;;;;5034854;28;20552;-62
2022/06/28 04:17:44;;;;;;;7.27;7.00;;;24.20;90.30;;;;;;5030648;28;20473;-62
2022/06/28 04:20:12;;;;;;;8.40;8.03;;;24.20;90.40;;;;;;5015312;28;20445;-62
2022/06/28 04:22:39;;;;;;;8.00;7.70;;;24.20;90.30;;;;;;5015221;28;20537;-63
2022/06/28 04:25:06;;;;;;;9.37;8.60;;;24.30;90.80;;;;;;5015228;28;20561;-62
2022/06/28 04:27:33;;;;;;;10.80;8.90;;;24.30;91.60;;;;;;5016281;28;20897;-59
2022/06/28 04:30:03;;;;;;;15.10;10.60;;;24.30;93.00;;;;;;5015158;28;20509;-58
2022/06/28 04:32:30;;;;;;;11.70;9.63;;;24.30;93.70;;;;;;5015186;28;20453;-57
2022/06/28 04:34:57;;;;;;;13.70;11.43;;;24.30;95.20;;;;;;5025229;28;20484;-63
2022/06/28 04:37:24;;;;;;;10.37;9.20;;;24.30;95.00;;;;;;5034919;28;20441;-63
2022/06/28 04:39:51;;;;;;;10.30;9.07;;;24.30;94.90;;;;;;5034577;28;20532;-63
2022/06/28 04:42:19;;;;;;;10.17;9.17;;;24.30;94.80;;;;;;5034777;28;20946;-62
2022/06/28 04:44:46;;;;;;;9.33;8.53;;;24.30;94.40;;;;;;5034514;28;20461;-63
2022/06/28 04:47:14;;;;;;;12.60;10.60;;;24.30;94.00;;;;;;5034667;28;20528;-65
2022/06/28 04:49:41;;;;;;;9.77;9.17;;;24.30;93.90;;;;;;5034630;28;20524;-62
2022/06/28 04:52:09;;;;;;;9.03;8.53;;;24.30;93.90;;;;;;5034525;28;20491;-62
2022/06/28 04:54:36;;;;;;;10.37;9.43;;;24.30;93.50;;;;;;5034310;28;20525;-62
2022/06/28 04:57:03;;;;;;;9.23;8.53;;;24.30;93.60;;;;;;5034442;28;20520;-62
2022/06/28 04:59:30;;;;;;;9.17;8.57;;;24.30;93.50;;;;;;5034426;28;20451;-62
2022/06/28 05:01:57;;;;;;;10.00;9.30;;;24.30;93.20;;;;;;5034173;28;20467;-62
2022/06/28 05:04:25;;;;;;;9.07;8.50;;;24.30;93.00;;;;;;5034347;28;20551;-63
2022/06/28 05:06:52;;;;;;;8.97;8.67;;;24.30;92.90;;;;;;5034305;28;20451;-63
2022/06/28 05:09:19;;;;;;;8.93;8.53;;;24.30;92.60;;;;;;5034353;28;20488;-62
2022/06/28 05:11:46;;;;;;;9.23;8.83;;;24.30;92.60;;;;;;5034030;28;20483;-63
2022/06/28 05:14:12;;;;;;;9.10;8.70;;;24.30;92.50;;;;;;5033561;28;20511;-62
2022/06/28 05:16:39;;;;;;;9.03;8.47;;;24.30;92.50;;;;;;5034226;28;20476;-63
2022/06/28 05:19:07;;;;;;;9.77;9.27;;;24.30;92.50;;;;;;5034090;28;20453;-63
2022/06/28 05:21:35;;;;;;;9.60;9.17;;;24.30;92.30;;;;;;5033832;28;20449;-64
2022/06/28 05:24:02;;;;;;;9.17;8.67;;;24.30;92.50;;;;;;5033930;28;20524;-64
2022/06/28 05:26:29;;;;;;;10.57;9.97;;;24.30;92.40;;;;;;5033837;28;20492;-63
2022/06/28 05:28:55;;;;;;;8.53;8.23;;;24.30;92.30;;;;;;5033931;28;20476;-63
2022/06/28 05:31:22;;;;;;;8.57;8.27;;;24.30;92.20;;;;;;5033672;28;20532;-63
2022/06/28 05:33:49;;;;;;;8.80;8.50;;;24.30;92.10;;;;;;5033715;28;20512;-63
2022/06/28 05:36:16;;;;;;;8.33;8.00;;;24.30;92.20;;;;;;5033688;28;20528;-63
2022/06/28 05:38:45;;;;;;;8.73;8.30;;;24.30;92.20;;;;;;5033769;28;20502;-62
2022/06/28 05:41:11;;;;;;;9.30;8.90;;;24.30;92.00;;;;;;5033536;28;20538;-62
2022/06/28 05:43:38;;;;;;;9.17;8.57;;;24.30;92.10;;;;;;5033714;28;20873;-63
2022/06/28 05:46:05;;;;;;;9.37;9.07;;;24.30;91.90;;;;;;5033608;28;20503;-63
2022/06/28 05:48:32;;;;;;;10.77;10.10;;;24.30;92.10;;;;;;5033705;28;20768;-62
2022/06/28 05:50:59;;;;;;;9.17;8.87;;;24.30;92.10;;;;;;5033270;28;20579;-63
2022/06/28 05:53:26;;;;;;;9.10;8.73;;;24.30;92.00;;;;;;5033491;28;20512;-61
2022/06/28 05:55:54;;;;;;;9.20;8.90;;;24.30;91.90;;;;;;5033031;28;20543;-63
2022/06/28 05:58:21;;;;;;;8.80;8.50;;;24.30;91.90;;;;;;5033293;28;20953;-60
2022/06/28 06:00:49;;;;;;;8.30;8.00;;;24.20;91.70;;;;;;5033169;28;20451;-62
2022/06/28 06:03:16;;;;;;;9.60;9.20;;;24.30;91.70;;;;;;5033157;28;20441;-62
2022/06/28 06:05:43;;;;;;;8.13;7.83;;;24.30;91.50;;;;;;5033224;28;20900;-64
2022/06/28 06:08:10;;;;;;;8.40;8.10;;;24.20;91.60;;;;;;5033258;28;20524;-62
2022/06/28 06:10:36;;;;;;;9.13;8.50;;;24.30;91.90;;;;;;5032895;28;20447;-63
2022/06/28 06:13:05;;;;;;;8.90;8.50;;;24.30;91.50;;;;;;5033168;28;20445;-63
2022/06/28 06:15:32;;;;;;;7.93;7.73;;;24.20;91.40;;;;;;5032935;28;20495;-63
2022/06/28 06:17:59;;;;;;;8.37;8.10;;;24.20;91.30;;;;;;5032958;28;20873;-64
2022/06/28 06:20:26;;;;;;;8.73;8.30;;;24.30;91.40;;;;;;5032983;28;20871;-62
2022/06/28 06:22:53;;;;;;;8.37;8.03;;;24.30;91.50;;;;;;5032854;28;20532;-65
2022/06/28 06:25:20;;;;;;;8.90;8.60;;;24.30;91.20;;;;;;5031894;28;20544;-63
2022/06/28 06:27:47;;;;;;;8.07;7.80;;;24.20;91.20;;;;;;5032965;28;20547;-62
2022/06/28 06:30:15;;;;;;;8.73;8.43;;;24.30;91.20;;;;;;5032465;28;20822;-63
2022/06/28 06:32:42;;;;;;;8.40;8.20;;;24.30;91.30;;;;;;5032659;28;20528;-63
2022/06/28 06:35:10;;;;;;;7.87;7.57;;;24.20;91.10;;;;;;5032560;28;20568;-62
2022/06/28 06:37:37;;;;;;;8.27;7.97;;;24.30;91.20;;;;;;5032593;28;20495;-62
2022/06/28 06:40:05;;;;;;;8.27;8.00;;;24.30;91.10;;;;;;5032310;28;20480;-62
2022/06/28 06:42:32;;;;;;;8.00;7.60;;;24.30;91.00;;;;;;5032489;28;20492;-63
2022/06/28 06:45:00;;;;;;;8.00;7.70;;;24.30;91.10;;;;;;5032386;28;20556;-63
2022/06/28 06:47:28;;;;;;;8.90;8.60;;;24.20;91.00;;;;;;5032604;28;20452;-63
2022/06/28 06:49:55;;;;;;;8.13;7.73;;;24.30;91.00;;;;;;5032317;28;20531;-63
2022/06/28 06:52:22;;;;;;;8.27;7.97;;;24.30;91.00;;;;;;5032256;28;20441;-62
2022/06/28 06:54:49;;;;;;;8.20;7.90;;;24.20;91.00;;;;;;5031952;28;20484;-62
2022/06/28 06:57:16;;;;;;;7.70;7.50;;;24.20;91.10;;;;;;5032246;28;20524;-61
2022/06/28 06:59:43;;;;;;;8.00;7.80;;;24.30;91.20;;;;;;5032111;28;21018;-64
2022/06/28 07:02:10;;;;;;;7.93;7.63;;;24.30;91.10;;;;;;5032072;28;20939;-62
2022/06/28 07:04:39;;;;;;;8.23;8.03;;;24.20;91.10;;;;;;5032072;28;20901;-59
2022/06/28 07:07:06;;;;;;;8.73;8.43;;;24.20;91.00;;;;;;5032040;28;20449;-62
2022/06/28 07:09:33;;;;;;;8.67;8.17;;;24.20;90.90;;;;;;5032042;28;20433;-62
2022/06/28 07:12:00;;;;;;;8.77;8.33;;;24.30;91.00;;;;;;5031928;28;20945;-60
2022/06/28 07:14:27;;;;;;;8.80;8.50;;;24.20;90.90;;;;;;5031796;28;20575;-62
2022/06/28 07:16:54;;;;;;;8.60;8.30;;;24.30;91.10;;;;;;5031959;28;20877;-62
2022/06/28 07:19:21;;;;;;;8.53;8.13;;;24.30;91.00;;;;;;5031965;28;20476;-62
2022/06/28 07:21:49;;;;;;;9.23;8.93;;;24.30;91.10;;;;;;5031689;28;20825;-62
2022/06/28 07:24:17;;;;;;;8.30;8.00;;;24.30;91.00;;;;;;5031811;28;20461;-62
2022/06/28 07:26:44;;;;;;;8.40;8.20;;;24.30;91.10;;;;;;5031891;28;20449;-62
2022/06/28 07:29:13;;;;;;;8.20;7.90;;;24.20;91.10;;;;;;5031825;28;20448;-63
2022/06/28 07:31:40;;;;;;;8.17;7.97;;;24.30;91.00;;;;;;5031503;28;20449;-62
2022/06/28 07:34:07;;;;;;;9.77;9.30;;;24.30;91.00;;;;;;5031649;28;20481;-62
2022/06/28 07:36:34;;;;;;;8.23;7.93;;;24.30;90.90;;;;;;5031579;28;21050;-62
2022/06/28 07:39:02;;;;;;;7.90;7.70;;;24.30;90.70;;;;;;5031681;28;20491;-62
2022/06/28 07:41:29;;;;;;;8.90;8.60;;;24.20;90.80;;;;;;5031609;28;20528;-62
2022/06/28 07:43:56;;;;;;;8.37;8.13;;;24.30;90.70;;;;;;5031577;28;20476;-63
2022/06/28 07:46:23;;;;;;;9.23;8.93;;;24.20;90.60;;;;;;5031636;28;20527;-62
2022/06/28 07:48:51;;;;;;;9.40;9.00;;;24.20;90.60;;;;;;5031762;28;20813;-62
2022/06/28 07:54:04;;;;;;;9.10;8.80;;;24.30;90.40;;;;;;5031459;28;20413;-62
2022/06/28 07:56:32;;;;;;;8.87;8.50;;;24.30;90.40;;;;;;5032141;28;21030;-62
2022/06/28 07:58:58;;;;;;;8.40;8.20;;;24.30;90.60;;;;;;5031508;28;20883;-63
2022/06/28 08:01:25;;;;;;;8.00;7.80;;;24.30;90.50;;;;;;5031244;28;20953;-62
2022/06/28 08:03:52;;;;;;;8.03;7.73;;;24.30;90.30;;;;;;5031407;28;20441;-63
2022/06/28 08:06:19;;;;;;;7.93;7.63;;;24.20;90.30;;;;;;5031394;28;20499;-61
2022/06/28 08:08:46;;;;;;;8.40;8.20;;;24.30;90.30;;;;;;5031551;28;20808;-62
2022/06/28 08:11:14;;;;;;;8.63;8.30;;;24.30;90.20;;;;;;5031215;28;20527;-62
2022/06/28 08:13:41;;;;;;;8.93;8.73;;;24.30;90.30;;;;;;5031275;28;20480;-62
2022/06/28 08:16:08;;;;;;;9.37;8.97;;;24.30;90.10;;;;;;5031220;28;20523;-63
2022/06/28 08:18:35;;;;;;;8.97;8.77;;;24.30;90.10;;;;;;5031326;28;20477;-62
2022/06/28 08:21:02;;;;;;;8.63;8.43;;;24.30;89.90;;;;;;5031024;28;20448;-62
2022/06/28 08:23:29;;;;;;;8.13;7.87;;;24.20;89.60;;;;;;5031329;28;20879;-63
2022/06/28 08:25:56;;;;;;;8.97;8.77;;;24.30;89.50;;;;;;5031185;28;20547;-60
2022/06/28 08:28:25;;;;;;;7.97;7.67;;;24.30;89.40;;;;;;5031150;28;20472;-63
2022/06/28 08:30:52;;;;;;;8.40;8.17;;;24.20;89.30;;;;;;5031007;28;20445;-62
2022/06/28 08:33:19;;;;;;;9.10;8.90;;;24.30;88.90;;;;;;5031051;28;21010;-62
2022/06/28 08:35:46;;;;;;;8.00;7.80;;;24.30;88.70;;;;;;5031110;28;20491;-62
2022/06/28 08:38:13;;;;;;;7.90;7.70;;;24.30;88.60;;;;;;5031123;28;20531;-62
2022/06/28 08:40:41;;;;;;;8.47;8.17;;;24.30;88.70;;;;;;5030913;28;20535;-62
2022/06/28 08:43:08;;;;;;;7.80;7.60;;;24.30;88.50;;;;;;5031057;28;20502;-62
2022/06/28 08:45:37;;;;;;;7.70;7.50;;;24.30;88.30;;;;;;5030933;28;20551;-63
2022/06/28 08:48:13;;;;;;;8.50;8.20;;;24.30;88.10;;;;;;5031343;28;20931;-61
2022/06/28 08:50:45;;;;;;;8.20;8.00;;;24.30;87.80;;;;;;5034450;28;20444;-62
2022/06/28 08:53:12;;;;;;;9.37;9.17;;;24.30;87.60;;;;;;5034756;28;20453;-62
2022/06/28 08:55:38;;;;;;;8.93;8.63;;;24.30;87.40;;;;;;5034291;28;21015;-62
2022/06/28 08:58:07;;;;;;;11.03;10.60;;;24.30;87.20;;;;;;5034475;28;20528;-62
2022/06/28 09:00:36;;;;;;;9.50;9.30;;;24.30;87.00;;;;;;5034335;28;21014;-62
2022/06/28 09:03:03;;;;;;;9.03;8.83;;;24.30;87.00;;;;;;5034361;28;20451;-62
2022/06/28 09:05:30;;;;;;;9.93;9.63;;;24.30;86.90;;;;;;5034266;28;20467;-62
2022/06/28 09:07:58;;;;;;;8.83;8.63;;;24.30;86.70;;;;;;5034402;28;20536;-62
2022/06/28 09:10:25;;;;;;;9.70;9.30;;;24.30;86.60;;;;;;5034066;28;20480;-62
2022/06/28 09:13:05;;;;;;;9.10;8.90;;;24.30;86.10;;;;;;5034327;28;20531;-62
2022/06/28 09:15:48;;;;;;;9.30;9.10;;;24.30;85.50;;;;;;5034046;28;20516;-62
2022/06/28 09:18:15;;;;;;;10.27;9.97;;;24.30;85.50;;;;;;5034206;28;20504;-62
2022/06/28 09:20:43;;;;;;;8.93;8.73;;;24.30;85.20;;;;;;5033885;28;20483;-62
2022/06/28 09:23:22;;;;;;;10.30;10.00;;;24.30;85.30;;;;;;5034241;28;20468;-62
2022/06/28 09:25:49;;;;;;;9.70;9.40;;;24.30;85.20;;;;;;5034094;28;20559;-62
2022/06/28 09:28:25;;;;;;;10.00;9.70;;;24.30;84.90;;;;;;5033944;28;20572;-62
2022/06/28 09:30:53;;;;;;;9.10;8.90;;;24.30;84.90;;;;;;5033939;28;20527;-62
2022/06/28 09:33:27;;;;;;;9.93;9.63;;;24.30;84.80;;;;;;5033791;28;20449;-63
2022/06/28 09:35:56;;;;;;;9.93;9.63;;;24.30;84.60;;;;;;5033773;28;20493;-63
2022/06/28 09:38:33;;;;;;;8.80;8.60;;;24.30;84.50;;;;;;5033749;28;20449;-62
2022/06/28 09:41:00;;;;;;;11.43;11.13;;;24.30;83.70;;;;;;5033485;28;20849;-62
2022/06/28 09:43:32;;;;;;;10.30;10.00;;;24.30;83.40;;;;;;5033728;28;20445;-62
2022/06/28 09:46:04;;;;;;;10.03;9.73;;;24.30;83.30;;;;;;5033486;28;20465;-63
2022/06/28 09:48:36;;;;;;;9.20;9.00;;;24.30;83.20;;;;;;5033624;28;20441;-63
2022/06/28 09:51:04;;;;;;;9.33;9.03;;;24.30;82.30;;;;;;5033556;28;20445;-61
2022/06/28 09:53:33;;;;;;;8.87;8.67;;;24.30;81.70;;;;;;5033498;28;20537;-62
2022/06/28 09:56:03;;;;;;;10.23;9.93;;;24.30;81.60;;;;;;5033169;28;20532;-62
2022/06/28 09:58:31;;;;;;;8.47;8.27;;;24.30;81.10;;;;;;5033470;28;20458;-62
2022/06/28 10:01:00;;;;;;;8.77;8.57;;;24.30;81.20;;;;;;5033113;28;20861;-62
2022/06/28 10:03:28;;;;;;;9.23;8.93;;;24.30;81.10;;;;;;5033254;28;20529;-63
2022/06/28 10:05:55;;;;;;;9.20;8.90;;;24.30;81.10;;;;;;5033236;28;20496;-62
2022/06/28 10:08:23;;;;;;;10.00;9.60;;;24.30;80.70;;;;;;5033138;28;20441;-62
2022/06/28 10:10:52;;;;;;;10.00;9.70;;;24.30;80.40;;;;;;5033001;28;20854;-62
2022/06/28 10:16:12;;;;;;;8.70;8.50;;;24.30;80.70;;;;;;5032910;28;20979;-63
2022/06/28 10:18:41;;;;;;;9.27;9.07;;;24.30;80.30;;;;;;5032974;28;20441;-62
2022/06/28 10:21:08;;;;;;;8.90;8.63;;;24.30;79.60;;;;;;5032756;28;20524;-62
2022/06/28 10:23:37;;;;;;;8.43;8.23;;;24.30;79.40;;;;;;5032973;28;20654;-63
2022/06/28 10:26:08;;;;;;;8.87;8.67;;;24.30;79.20;;;;;;5032738;28;20461;-62
2022/06/28 10:28:38;;;;;;;9.70;9.30;;;24.40;79.10;;;;;;5032788;28;20547;-63
2022/06/28 10:31:36;;;;;;;8.43;8.20;;;24.40;78.90;;;;;;5032573;28;20449;-62
2022/06/28 10:34:04;;;;;;;10.77;10.47;;;24.40;78.90;;;;;;5032651;28;20450;-63
2022/06/28 10:36:42;;;;;;;9.00;8.80;;;24.40;78.70;;;;;;5032563;28;20516;-60
2022/06/28 10:39:15;;;;;;;10.53;10.23;;;24.40;78.60;;;;;;5032568;28;20532;-61
2022/06/28 10:41:44;;;;;;;9.73;9.43;;;24.40;78.60;;;;;;5032289;28;20807;-64
2022/06/28 10:44:12;;;;;;;8.70;8.50;;;24.40;78.90;;;;;;5032383;28;21061;-60
2022/06/28 10:46:41;;;;;;;8.50;8.20;;;24.40;78.10;;;;;;5032427;28;20437;-63
2022/06/28 10:49:10;;;;;;;8.80;8.50;;;24.40;77.80;;;;;;5032347;28;20449;-63
2022/06/28 10:51:42;;;;;;;9.17;8.77;;;24.40;77.70;;;;;;5032193;28;20800;-63
2022/06/28 10:54:11;;;;;;;8.10;7.90;;;24.40;77.80;;;;;;5032089;28;20476;-63
2022/06/28 10:56:42;;;;;;;8.73;8.53;;;24.40;77.90;;;;;;5032090;28;20842;-62
2022/06/28 10:59:11;;;;;;;9.03;8.83;;;24.40;77.50;;;;;;5032094;28;20449;-62
2022/06/28 11:01:56;;;;;;;10.40;10.10;;;24.50;78.00;;;;;;5031815;28;20879;-62
2022/06/28 11:04:26;;;;;;;9.30;9.00;;;24.50;78.20;;;;;;5031986;28;20499;-63
2022/06/28 11:06:56;;;;;;;8.20;8.00;;;24.50;77.60;;;;;;5032078;28;20449;-60
2022/06/28 11:09:35;;;;;;;8.60;8.40;;;24.50;77.70;;;;;;5031933;28;20488;-64
2022/06/28 11:12:12;;;;;;;9.30;9.10;;;24.50;76.90;;;;;;5031261;28;20437;-62
2022/06/28 11:14:52;;;;;;;9.60;9.30;;;24.50;76.40;;;;;;5031875;28;20893;-62
2022/06/28 11:17:22;;;;;;;9.30;9.00;;;24.50;75.60;;;;;;5032004;28;20626;-60
2022/06/28 11:19:54;;;;;;;9.97;9.67;;;24.50;74.90;;;;;;5031673;28;20540;-63
2022/06/28 11:22:27;;;;;;;9.70;9.50;;;24.50;74.60;;;;;;5031793;28;20449;-62
2022/06/28 11:24:55;;;;;;;9.00;8.70;;;24.50;74.20;;;;;;5031832;28;21025;-62
2022/06/28 11:27:21;;;;;;;8.37;8.00;;;24.50;73.80;;;;;;5031832;28;20483;-63
2022/06/28 11:29:53;;;;;;;8.37;8.17;;;24.50;73.40;;;;;;5031489;28;20971;-62
2022/06/28 11:32:23;;;;;;;9.00;8.70;;;24.50;72.90;;;;;;5031629;28;20536;-63
2022/06/28 11:34:55;;;;;;;9.20;8.90;;;24.50;71.60;;;;;;5031720;28;20519;-60
2022/06/28 11:37:23;;;;;;;8.83;8.23;;;24.50;71.50;;;;;;5031606;28;20445;-63
2022/06/28 11:39:54;;;;;;;8.20;8.00;;;24.50;71.20;;;;;;5031372;28;20449;-63
2022/06/28 11:42:21;;;;;;;8.53;8.33;;;24.50;72.40;;;;;;5031505;28;20441;-62
2022/06/28 11:44:50;;;;;;;9.40;9.00;;;24.50;70.50;;;;;;5031497;28;20551;-63
2022/06/28 11:47:17;;;;;;;8.67;8.47;;;24.50;69.60;;;;;;5031480;28;20531;-62
2022/06/28 11:49:51;;;;;;;8.97;8.67;;;24.50;70.40;;;;;;5031259;28;20511;-64
2022/06/28 11:52:18;;;;;;;9.60;9.30;;;24.60;69.30;;;;;;5031497;28;20452;-63
2022/06/28 11:54:46;;;;;;;8.73;8.53;;;24.50;68.50;;;;;;5031300;28;20568;-62
2022/06/28 11:57:17;;;;;;;8.77;8.50;;;24.60;69.30;;;;;;5031425;28;21013;-62
2022/06/28 11:59:57;;;;;;;8.40;8.20;;;24.60;70.00;;;;;;5031294;28;20963;-65
2022/06/28 12:02:44;;;;;;;8.30;8.10;;;24.60;70.70;;;;;;5031305;28;20942;-62
2022/06/28 12:05:13;;;;;;;8.63;8.40;;;24.60;71.40;;;;;;5031324;28;20549;-63
2022/06/28 12:07:42;;;;;;;8.43;8.23;;;24.60;71.50;;;;;;5031398;28;20484;-63
2022/06/28 12:10:23;;;;;;;8.40;8.20;;;24.60;71.00;;;;;;5031146;28;20476;-62
2022/06/28 12:12:51;;;;;;;10.27;9.97;;;24.60;71.50;;;;;;5031265;28;20500;-64
2022/06/28 12:15:25;;;;;;;8.97;8.57;;;24.60;72.60;;;;;;5031095;28;20800;-63
2022/06/28 12:17:52;;;;;;;9.10;8.80;;;24.60;72.90;;;;;;5031406;28;20826;-63
2022/06/28 12:20:20;;;;;;;8.53;8.33;;;24.60;73.30;;;;;;5031232;28;20531;-63
2022/06/28 12:22:56;;;;;;;10.37;10.17;;;24.70;73.40;;;;;;5031351;28;20867;-63
2022/06/28 12:25:23;;;;;;;9.37;9.07;;;24.70;73.60;;;;;;5035165;28;20543;-63
2022/06/28 12:27:50;;;;;;;8.53;8.23;;;24.70;73.50;;;;;;5035145;28;20445;-63
2022/06/28 12:30:17;;;;;;;8.80;8.60;;;24.70;73.50;;;;;;5034825;28;20441;-63
2022/06/28 12:32:45;;;;;;;9.07;8.87;;;24.70;73.50;;;;;;5034984;28;20455;-63
2022/06/28 12:35:13;;;;;;;8.07;7.87;;;24.70;73.40;;;;;;5034904;28;20658;-62
2022/06/28 12:37:41;;;;;;;8.93;8.63;;;24.70;73.60;;;;;;5034833;28;21200;-63
2022/06/28 12:40:09;;;;;;;8.40;8.17;;;24.70;73.00;;;;;;5034619;28;20472;-62
2022/06/28 12:42:37;;;;;;;8.77;8.27;;;24.70;72.80;;;;;;5034773;28;20638;-60
2022/06/28 12:45:05;;;;;;;7.57;7.37;;;24.80;73.10;;;;;;5034690;28;20496;-63
2022/06/28 12:47:33;;;;;;;9.07;8.77;;;24.80;72.80;;;;;;5034679;28;20476;-63
2022/06/28 12:50:04;;;;;;;7.70;7.50;;;24.80;73.20;;;;;;5034538;28;20482;-63
2022/06/28 12:52:32;;;;;;;7.80;7.60;;;24.80;73.00;;;;;;5034639;28;20468;-63
2022/06/28 12:55:01;;;;;;;9.30;9.10;;;24.80;72.70;;;;;;5034345;28;20588;-64
2022/06/28 12:57:28;;;;;;;8.30;8.10;;;24.80;73.10;;;;;;5034502;28;21001;-63
2022/06/28 12:59:56;;;;;;;8.20;7.93;;;24.80;72.60;;;;;;5034229;28;20535;-64
2022/06/28 13:02:23;;;;;;;8.70;8.50;;;24.80;73.20;;;;;;5034359;28;20447;-63